Saginaw, Missouri
Current Conditions -  °F | °C
As of 6:53 PM on Thursday 27 Nov 2014 (Local Time) from KJLN Reporting Station
Clear Clear  
Wind Chill: 32°   Ceiling: Unl
Heat Index: 37°   Visibility: 10mi
Dew Point: 22°   Wind: 6mph
Humidity: 54%   Direction: 130°SE
Pressure: 30.37"   Gusts: NA
Location:  37.02°N, 94.47°W
Report Text: KJLN 280053Z 13005KT 10SM CLR 03/M06 A3037 RMK AO2 SLP294 T00281056
Loading
Personal Weather Stations






























Interactive Weather Map New forecast layout! Learn more

10-Day Weather Forecast

Advertisements
Track Severe Weather on mobile